Time;durP1;ratioP1;P1;durP2;ratioP2;P2;SDS_P1;SDS_P2;PMS_P1;PMS_P2;Temp;Humidity;BMP_temperature;BMP_pressure;BME280_temperature;BME280_humidity;BME280_pressure;Samples;Min_cycle;Max_cycle;Signal;HPM_P1;HPM_P2
2021/12/31 00:02:03;;;;;;;14.45;2.72;;;;;;;12.98;100.00;101490.56;5015611;28;20037;-80
2021/12/31 00:04:28;;;;;;;14.32;3.65;;;;;;;13.09;100.00;101501.59;5013832;28;20131;-80
2021/12/31 00:06:54;;;;;;;13.27;2.72;;;;;;;12.98;100.00;101496.06;4981587;28;20056;-79
2021/12/31 00:09:19;;;;;;;11.45;2.78;;;;;;;13.02;100.00;101495.69;5010657;28;21806;-79
2021/12/31 00:11:45;;;;;;;13.23;2.90;;;;;;;13.02;100.00;101492.09;5013606;28;20101;-79
2021/12/31 00:14:10;;;;;;;7.90;2.78;;;;;;;13.03;100.00;101491.06;4980920;28;20117;-79
2021/12/31 00:16:37;;;;;;;11.55;2.80;;;;;;;12.98;100.00;101496.91;4980511;28;20042;-80
2021/12/31 00:19:02;;;;;;;9.98;2.78;;;;;;;12.97;100.00;101500.69;5011719;28;20237;-79
2021/12/31 00:21:32;;;;;;;14.32;2.75;;;;;;;12.99;100.00;101490.44;5017018;28;20049;-79
2021/12/31 00:23:58;;;;;;;11.13;2.55;;;;;;;13.04;100.00;101488.19;5001218;28;20034;-80
2021/12/31 00:26:23;;;;;;;5.63;2.78;;;;;;;13.12;100.00;101486.69;5018856;28;20037;-80
2021/12/31 00:28:49;;;;;;;8.30;2.47;;;;;;;13.04;100.00;101485.44;4994542;28;20461;-79
2021/12/31 00:31:14;;;;;;;9.10;2.42;;;;;;;13.00;100.00;101505.94;5016994;28;20030;-80
2021/12/31 00:33:39;;;;;;;7.82;2.42;;;;;;;13.06;100.00;101502.69;5019230;28;20105;-79
2021/12/31 00:36:05;;;;;;;10.93;3.10;;;;;;;13.00;100.00;101496.81;5000074;28;20045;-79
2021/12/31 00:38:30;;;;;;;11.73;2.90;;;;;;;13.02;100.00;101501.19;4956261;28;1180762;-80
2021/12/31 00:40:56;;;;;;;14.80;2.83;;;;;;;13.02;100.00;101505.84;5003446;28;20449;-80
2021/12/31 00:43:21;;;;;;;16.65;3.25;;;;;;;13.12;100.00;101506.84;5009506;28;20045;-80
2021/12/31 00:45:47;;;;;;;14.90;2.67;;;;;;;13.03;100.00;101505.69;4995048;28;20221;-80
2021/12/31 00:48:12;;;;;;;11.25;2.40;;;;;;;13.13;100.00;101510.47;5017530;28;20488;-80
2021/12/31 00:50:39;;;;;;;15.27;2.50;;;;;;;13.13;100.00;101514.06;5002048;28;20038;-80
2021/12/31 00:53:05;;;;;;;9.43;2.40;;;;;;;13.10;100.00;101516.19;5006322;28;20041;-80
2021/12/31 00:55:31;;;;;;;7.30;2.28;;;;;;;13.11;100.00;101512.47;5002261;28;20038;-80
2021/12/31 00:57:57;;;;;;;11.10;2.42;;;;;;;13.18;100.00;101513.72;4994289;28;20033;-80
2021/12/31 01:00:22;;;;;;;16.13;2.50;;;;;;;13.15;100.00;101513.94;5036167;28;20045;-81
2021/12/31 01:02:48;;;;;;;7.65;2.20;;;;;;;13.22;100.00;101506.97;5020428;28;20065;-80
2021/12/31 01:05:15;;;;;;;5.80;1.98;;;;;;;13.31;100.00;101514.47;5000420;28;20478;-80
2021/12/31 01:07:41;;;;;;;13.90;2.28;;;;;;;13.24;100.00;101507.72;5003306;28;20424;-80
2021/12/31 01:10:11;;;;;;;8.88;2.10;;;;;;;13.35;100.00;101507.78;5001431;28;20026;-80
2021/12/31 01:12:36;;;;;;;8.15;2.08;;;;;;;13.28;100.00;101511.09;5008806;28;20034;-80
2021/12/31 01:15:07;;;;;;;13.90;2.63;;;;;;;13.30;100.00;101512.75;4984161;28;20042;-80
2021/12/31 01:20:18;;;;;;;7.38;2.10;;;;;;;13.21;100.00;101517.09;5000628;28;20038;-80
2021/12/31 01:22:44;;;;;;;11.65;2.95;;;;;;;13.27;100.00;101507.50;4999252;28;20034;-80
2021/12/31 01:25:11;;;;;;;9.98;2.88;;;;;;;13.18;100.00;101502.72;4998196;28;20034;-80
2021/12/31 01:27:41;;;;;;;13.48;2.80;;;;;;;13.18;100.00;101502.72;5009505;28;20034;-80
2021/12/31 01:30:08;;;;;;;8.85;2.72;;;;;;;13.17;100.00;101506.47;4998381;28;20042;-80
2021/12/31 01:32:35;;;;;;;8.50;2.60;;;;;;;13.18;100.00;101500.84;4995456;28;20041;-80
2021/12/31 01:35:02;;;;;;;9.82;2.65;;;;;;;13.23;100.00;101514.22;5017694;28;20101;-80
2021/12/31 01:37:27;;;;;;;6.82;1.90;;;;;;;13.16;100.00;101505.59;5012486;28;20113;-80
2021/12/31 01:39:53;;;;;;;9.77;2.20;;;;;;;13.12;100.00;101494.94;5015984;28;20133;-80
2021/12/31 01:42:25;;;;;;;7.68;2.40;;;;;;;13.21;100.00;101506.09;4995475;28;20026;-80
2021/12/31 01:45:00;;;;;;;5.97;2.17;;;;;;;13.13;100.00;101502.22;4996596;28;20029;-80
2021/12/31 01:47:46;;;;;;;8.38;2.08;;;;;;;13.16;100.00;101507.47;4986831;28;20084;-80
2021/12/31 01:50:11;;;;;;;10.35;2.17;;;;;;;13.22;100.00;101510.59;4998673;28;20032;-80
2021/12/31 01:52:40;;;;;;;14.57;2.90;;;;;;;13.17;100.00;101504.59;5005509;28;20112;-80
2021/12/31 01:55:09;;;;;;;13.73;2.00;;;;;;;13.14;100.00;101517.72;5008252;28;20031;-80
2021/12/31 01:57:34;;;;;;;7.30;1.90;;;;;;;13.11;100.00;101510.56;5013915;28;20109;-80
2021/12/31 02:00:00;;;;;;;10.68;2.30;;;;;;;13.13;100.00;101514.06;5018833;28;20467;-80
2021/12/31 02:02:26;;;;;;;10.70;2.75;;;;;;;13.15;100.00;101513.94;5013554;28;20026;-80
2021/12/31 02:04:53;;;;;;;14.40;3.72;;;;;;;13.12;100.00;101515.09;5005467;28;20030;-79
2021/12/31 02:07:19;;;;;;;9.93;2.38;;;;;;;13.15;100.00;101511.19;4990506;28;20057;-80
2021/12/31 02:09:51;;;;;;;5.63;2.00;;;;;;;13.17;100.00;101518.34;4998058;28;20061;-80
2021/12/31 02:12:17;;;;;;;13.60;2.87;;;;;;;13.11;100.00;101512.47;5016783;28;20395;-80
2021/12/31 02:14:44;;;;;;;10.02;2.13;;;;;;;13.10;100.00;101499.69;4995148;28;20037;-80
2021/12/31 02:17:10;;;;;;;7.95;2.60;;;;;;;13.13;100.00;101511.31;5002062;28;20038;-80
2021/12/31 02:19:38;;;;;;;7.78;2.22;;;;;;;13.10;100.00;101511.59;5000966;28;20544;-79
2021/12/31 02:22:04;;;;;;;6.63;2.20;;;;;;;13.10;100.00;101511.59;5013107;28;20030;-80
2021/12/31 02:24:30;;;;;;;10.07;2.47;;;;;;;13.11;100.00;101510.56;4999488;28;20034;-80
2021/12/31 02:26:58;;;;;;;13.63;2.78;;;;;;;13.14;100.00;101506.72;5016078;28;20041;-80
2021/12/31 02:29:25;;;;;;;11.85;2.72;;;;;;;13.04;100.00;101512.94;5007001;28;20422;-80
2021/12/31 02:31:51;;;;;;;9.20;2.63;;;;;;;13.12;100.00;101508.69;5009902;28;20065;-80
2021/12/31 02:34:17;;;;;;;9.30;2.80;;;;;;;13.05;100.00;101506.47;4998483;28;20037;-79
2021/12/31 02:36:42;;;;;;;8.13;2.22;;;;;;;13.11;100.00;101509.72;4997489;28;20030;-79
2021/12/31 02:39:08;;;;;;;10.45;2.80;;;;;;;13.09;100.00;101501.59;5012054;28;20482;-79
2021/12/31 02:41:34;;;;;;;9.95;2.03;;;;;;;13.06;100.00;101502.69;4997993;28;20037;-79
2021/12/31 02:43:59;;;;;;;13.10;2.67;;;;;;;12.98;100.00;101491.44;4999447;28;20110;-79
2021/12/31 02:46:25;;;;;;;6.68;2.20;;;;;;;12.99;100.00;101506.94;5008977;28;20042;-79
2021/12/31 02:48:56;;;;;;;11.48;2.42;;;;;;;13.00;100.00;101499.56;5006498;28;20038;-79
2021/12/31 02:51:23;;;;;;;12.57;2.53;;;;;;;13.12;100.00;101501.34;5007812;28;20505;-79
2021/12/31 02:53:52;;;;;;;11.25;2.15;;;;;;;13.05;100.00;101498.22;5017084;28;20030;-79
2021/12/31 02:56:18;;;;;;;9.15;2.30;;;;;;;13.02;100.00;101492.09;4968171;28;20035;-79
2021/12/31 02:58:44;;;;;;;11.27;2.22;;;;;;;13.06;100.00;101499.94;4997777;28;20201;-79
2021/12/31 03:01:12;;;;;;;10.32;2.33;;;;;;;13.02;100.00;101490.19;4999629;28;20041;-81
2021/12/31 03:03:39;;;;;;;12.77;2.30;;;;;;;13.00;100.00;101481.22;4987324;28;20490;-79
2021/12/31 03:06:04;;;;;;;11.77;2.80;;;;;;;13.07;100.00;101484.34;5012031;28;20105;-79
2021/12/31 03:08:48;;;;;;;9.80;3.25;;;;;;;12.97;100.00;101481.44;4980412;28;20085;-79
2021/12/31 03:11:18;;;;;;;8.60;2.30;;;;;;;12.97;100.00;101481.44;5002905;28;20034;-79
2021/12/31 03:13:45;;;;;;;16.13;3.03;;;;;;;12.96;100.00;101490.69;5009809;28;20505;-79
2021/12/31 03:16:11;;;;;;;8.63;2.05;;;;;;;13.02;100.00;101495.69;5004954;28;20057;-79
2021/12/31 03:18:37;;;;;;;7.28;2.03;;;;;;;12.97;100.00;101475.06;4982903;28;20033;-79
2021/12/31 03:21:09;;;;;;;9.45;2.20;;;;;;;12.98;100.00;101480.44;5010376;28;20108;-79
2021/12/31 03:23:35;;;;;;;12.00;2.75;;;;;;;13.03;100.00;101480.94;5006927;28;20045;-80
2021/12/31 03:26:01;;;;;;;8.48;2.13;;;;;;;12.98;100.00;101465.81;5009916;28;20038;-80
2021/12/31 03:28:27;;;;;;;7.63;2.42;;;;;;;12.93;100.00;101465.31;4999740;28;20030;-79
2021/12/31 03:30:53;;;;;;;7.55;2.22;;;;;;;12.93;100.00;101466.19;5015815;28;20085;-79
2021/12/31 03:33:19;;;;;;;9.88;2.63;;;;;;;12.95;100.00;101475.16;5013348;28;20046;-79
2021/12/31 03:35:44;;;;;;;8.25;2.13;;;;;;;12.95;100.00;101474.31;5018620;28;20489;-79
2021/12/31 03:38:11;;;;;;;11.13;2.28;;;;;;;12.87;100.00;101470.31;5006495;28;20109;-79
2021/12/31 03:40:38;;;;;;;10.98;2.50;;;;;;;12.89;100.00;101475.69;5003641;28;20062;-79
2021/12/31 03:43:03;;;;;;;12.30;2.75;;;;;;;12.84;100.00;101480.66;5018895;28;20410;-79
2021/12/31 03:45:29;;;;;;;11.45;2.90;;;;;;;12.83;100.00;101465.16;5014337;28;20085;-79
2021/12/31 03:47:55;;;;;;;8.57;2.40;;;;;;;12.79;100.00;101478.28;5016651;28;20516;-79
2021/12/31 03:50:20;;;;;;;11.05;2.83;;;;;;;12.77;100.00;101473.88;5020663;28;20034;-79
2021/12/31 03:52:46;;;;;;;29.55;3.25;;;;;;;12.85;100.00;101474.16;5019530;28;20033;-79
2021/12/31 03:55:12;;;;;;;15.52;2.88;;;;;;;12.86;100.00;101481.41;5009259;28;20042;-80
2021/12/31 03:57:38;;;;;;;13.30;3.25;;;;;;;12.76;100.00;101473.03;5007922;28;20467;-79
2021/12/31 04:00:06;;;;;;;13.45;3.10;;;;;;;12.74;100.00;101465.88;4990108;28;20076;-80
2021/12/31 04:02:31;;;;;;;14.38;3.17;;;;;;;12.65;100.00;101460.09;5017589;28;20045;-80
2021/12/31 04:04:57;;;;;;;18.27;3.33;;;;;;;12.72;100.00;101463.25;5017850;28;20037;-79
2021/12/31 04:07:23;;;;;;;13.27;2.85;;;;;;;12.76;100.00;101473.03;5021548;28;20414;-80
2021/12/31 04:09:48;;;;;;;10.68;2.97;;;;;;;12.73;100.00;101466.91;5019654;28;20092;-79
2021/12/31 04:12:14;;;;;;;13.48;3.38;;;;;;;12.67;100.00;101463.63;5009532;28;20049;-79
2021/12/31 04:14:39;;;;;;;11.88;2.90;;;;;;;12.67;100.00;101452.66;5008684;28;20053;-79
2021/12/31 04:17:05;;;;;;;7.88;2.67;;;;;;;12.67;100.00;101438.91;5013806;28;20034;-79
2021/12/31 04:19:31;;;;;;;8.52;3.15;;;;;;;12.76;100.00;101455.66;5020080;28;20034;-79
2021/12/31 04:21:56;;;;;;;13.68;3.65;;;;;;;12.73;100.00;101464.16;4998116;28;20029;-79
2021/12/31 04:27:17;;;;;;;16.77;2.95;;;;;;;12.74;100.00;101480.53;4998741;28;20566;-79
2021/12/31 04:29:49;;;;;;;8.88;3.38;;;;;;;12.81;100.00;101478.16;5005374;28;20041;-80
2021/12/31 04:32:15;;;;;;;9.40;3.33;;;;;;;12.73;100.00;101473.25;5015135;28;20030;-79
2021/12/31 04:34:40;;;;;;;10.82;2.97;;;;;;;12.80;100.00;101479.16;5001093;28;20033;-80
2021/12/31 04:37:06;;;;;;;11.20;3.20;;;;;;;12.74;100.00;101477.78;5007810;28;20076;-80
2021/12/31 04:39:31;;;;;;;12.80;3.35;;;;;;;12.72;100.00;101477.00;4993895;28;20053;-80
2021/12/31 04:41:57;;;;;;;14.98;2.58;;;;;;;12.74;100.00;101460.38;4999214;28;20046;-80
2021/12/31 04:44:22;;;;;;;7.88;2.75;;;;;;;12.72;100.00;101459.63;5007333;28;20061;-79
2021/12/31 04:46:47;;;;;;;13.68;2.65;;;;;;;12.74;100.00;101468.63;5000951;28;20046;-79
2021/12/31 04:49:13;;;;;;;11.95;2.72;;;;;;;12.70;100.00;101470.75;5020446;28;20446;-79
2021/12/31 04:51:38;;;;;;;7.82;3.08;;;;;;;12.66;100.00;101456.38;5016712;28;20112;-79
2021/12/31 04:54:04;;;;;;;9.48;2.88;;;;;;;12.68;100.00;101462.63;5013035;28;20149;-79
2021/12/31 04:56:29;;;;;;;13.18;3.17;;;;;;;12.65;100.00;101456.50;5013470;28;20037;-79
2021/12/31 04:58:55;;;;;;;13.18;3.20;;;;;;;12.70;100.00;101457.00;5019960;28;20026;-79
2021/12/31 05:01:23;;;;;;;10.25;3.53;;;;;;;12.60;100.00;101458.72;5000507;28;20037;-79
2021/12/31 05:03:48;;;;;;;12.68;3.03;;;;;;;12.67;100.00;101466.38;5014149;28;20092;-79
2021/12/31 05:06:15;;;;;;;14.70;3.08;;;;;;;12.65;100.00;101467.50;4966570;28;20038;-79
2021/12/31 05:08:40;;;;;;;10.35;2.63;;;;;;;12.69;100.00;101464.38;5013352;28;20034;-80
2021/12/31 05:11:06;;;;;;;10.48;2.85;;;;;;;12.68;100.00;101465.38;5000606;28;20072;-79
2021/12/31 05:13:31;;;;;;;15.50;2.55;;;;;;;12.72;100.00;101467.88;5013463;28;20549;-79
2021/12/31 05:16:02;;;;;;;7.35;2.70;;;;;;;12.64;100.00;101450.13;5001204;28;20487;-80
2021/12/31 05:18:27;;;;;;;9.57;2.50;;;;;;;12.62;100.00;101454.84;5016330;28;20064;-79
2021/12/31 05:20:53;;;;;;;6.80;2.13;;;;;;;12.64;100.00;101441.91;4997677;28;20454;-80
2021/12/31 05:23:19;;;;;;;10.50;2.45;;;;;;;12.55;100.00;101453.59;5008652;28;20397;-79
2021/12/31 05:25:44;;;;;;;10.18;2.30;;;;;;;12.56;100.00;101458.09;4999597;28;20049;-79
2021/12/31 05:28:10;;;;;;;8.40;2.90;;;;;;;12.60;100.00;101447.75;4996059;28;20042;-79
2021/12/31 05:30:36;;;;;;;10.95;2.45;;;;;;;12.61;100.00;101454.97;5000737;28;20042;-79
2021/12/31 05:33:01;;;;;;;13.50;2.65;;;;;;;12.60;100.00;101456.00;5017041;28;20126;-79
2021/12/31 05:35:27;;;;;;;7.90;2.25;;;;;;;12.62;100.00;101448.50;5014438;28;20065;-79
2021/12/31 05:37:53;;;;;;;7.45;2.50;;;;;;;12.68;100.00;101437.91;5009342;28;20038;-78
2021/12/31 05:40:19;;;;;;;10.52;2.70;;;;;;;12.60;100.00;101436.75;4998732;28;20056;-80
2021/12/31 05:42:45;;;;;;;9.68;2.47;;;;;;;12.59;100.00;101438.63;5016073;28;20038;-79
2021/12/31 05:45:11;;;;;;;13.73;2.20;;;;;;;12.66;100.00;101442.63;5013955;28;20056;-79
2021/12/31 05:47:38;;;;;;;10.38;2.42;;;;;;;12.62;100.00;101435.63;5020206;28;20056;-79
2021/12/31 05:50:05;;;;;;;15.13;2.58;;;;;;;12.57;100.00;101423.25;5002892;28;20034;-80
2021/12/31 05:52:31;;;;;;;3.42;2.40;;;;;;;12.54;100.00;101440.84;5018839;28;20485;-79
2021/12/31 05:54:56;;;;;;;7.07;2.60;;;;;;;12.51;100.00;101443.84;5014010;28;20034;-79
2021/12/31 05:57:22;;;;;;;19.00;2.67;;;;;;;12.41;100.00;101431.81;4999886;28;20467;-79
2021/12/31 05:59:47;;;;;;;9.40;2.00;;;;;;;12.38;100.00;101426.56;5000038;28;20109;-79
2021/12/31 06:02:13;;;;;;;8.18;2.25;;;;;;;12.31;100.00;101421.56;5015629;28;20034;-80
2021/12/31 06:04:38;;;;;;;7.72;2.55;;;;;;;12.35;100.00;101413.06;4991370;28;20070;-80
2021/12/31 06:07:04;;;;;;;8.98;2.30;;;;;;;12.30;100.00;101417.06;5018415;28;20034;-79
2021/12/31 06:09:30;;;;;;;12.48;2.45;;;;;;;12.20;100.00;101417.88;5018279;28;20373;-80
2021/12/31 06:11:57;;;;;;;8.75;2.35;;;;;;;12.17;100.00;101407.13;5013812;28;20489;-80
2021/12/31 06:14:23;;;;;;;7.75;2.17;;;;;;;12.16;100.00;101406.25;5010924;28;20034;-80
2021/12/31 06:16:49;;;;;;;6.00;1.73;;;;;;;12.13;100.00;101412.88;4998384;28;20398;-79
2021/12/31 06:19:14;;;;;;;6.97;2.13;;;;;;;12.19;100.00;101411.50;4998962;28;20031;-79
2021/12/31 06:21:42;;;;;;;8.38;2.00;;;;;;;12.16;100.00;101428.22;5002738;28;20030;-78
2021/12/31 06:24:09;;;;;;;6.45;1.85;;;;;;;12.13;100.00;101415.63;5001957;28;20116;-79
2021/12/31 06:26:35;;;;;;;6.78;2.13;;;;;;;12.14;100.00;101428.34;5015470;28;20045;-79
2021/12/31 06:29:00;;;;;;;14.80;2.30;;;;;;;12.18;100.00;101430.84;5018104;28;20033;-79
2021/12/31 06:31:26;;;;;;;9.05;2.00;;;;;;;12.08;100.00;101428.78;4995010;28;20086;-81
2021/12/31 06:33:52;;;;;;;8.48;2.38;;;;;;;12.06;100.00;101432.66;5014752;28;20503;-80
2021/12/31 06:36:19;;;;;;;4.65;2.00;;;;;;;12.02;100.00;101434.78;5016164;28;20069;-79
2021/12/31 06:38:44;;;;;;;7.95;2.38;;;;;;;11.98;100.00;101422.25;5010197;28;20088;-78
2021/12/31 06:41:10;;;;;;;8.55;2.38;;;;;;;11.95;100.00;101427.97;4982402;28;20026;-79
2021/12/31 06:43:36;;;;;;;8.13;2.30;;;;;;;11.99;100.00;101442.38;4993158;28;20089;-81
2021/12/31 06:46:01;;;;;;;14.18;3.72;;;;;;;11.94;100.00;101424.38;5004033;28;20033;-79
2021/12/31 06:48:27;;;;;;;13.50;2.53;;;;;;;11.91;100.00;101431.94;5017516;28;20037;-80
2021/12/31 06:50:52;;;;;;;11.30;2.45;;;;;;;11.84;100.00;101426.03;4998309;28;20041;-79
2021/12/31 06:53:18;;;;;;;7.00;2.83;;;;;;;11.87;100.00;101428.56;4995586;28;20030;-79
2021/12/31 06:55:43;;;;;;;5.82;2.50;;;;;;;11.86;100.00;101439.66;5000986;28;20030;-80
2021/12/31 06:58:09;;;;;;;7.38;1.95;;;;;;;11.92;100.00;101439.19;5014151;28;20452;-80
2021/12/31 07:00:35;;;;;;;10.25;2.50;;;;;;;11.82;100.00;101449.94;5019982;28;20034;-79
2021/12/31 07:03:11;;;;;;;7.57;2.47;;;;;;;11.84;100.00;101449.84;5004744;28;20112;-79
2021/12/31 07:05:39;;;;;;;6.82;2.30;;;;;;;11.86;100.00;101456.97;4994201;28;20033;-79
2021/12/31 07:08:05;;;;;;;9.13;2.40;;;;;;;11.76;100.00;101455.91;5010724;28;20050;-79
2021/12/31 07:10:30;;;;;;;8.23;2.40;;;;;;;11.69;100.00;101452.75;5013965;28;20037;-79
2021/12/31 07:13:11;;;;;;;7.30;2.58;;;;;;;11.68;100.00;101450.13;5013234;28;20038;-79
2021/12/31 07:15:40;;;;;;;15.18;3.08;;;;;;;11.78;100.00;101448.44;5004004;28;20458;-78
2021/12/31 07:18:07;;;;;;;5.03;2.25;;;;;;;11.74;100.00;101441.41;5020122;28;20478;-80
2021/12/31 07:20:32;;;;;;;7.82;2.00;;;;;;;11.63;100.00;101435.88;5020565;28;20033;-79
2021/12/31 07:23:21;;;;;;;9.50;2.67;;;;;;;11.64;100.00;101434.88;5011312;28;20382;-80
2021/12/31 07:25:47;;;;;;;9.15;2.25;;;;;;;11.59;100.00;101435.19;5010091;28;20413;-80
2021/12/31 07:28:14;;;;;;;8.82;3.00;;;;;;;11.73;100.00;101434.19;5010203;28;20039;-82
2021/12/31 07:30:40;;;;;;;11.52;2.78;;;;;;;11.66;100.00;101431.03;5013529;28;20038;-80
2021/12/31 07:33:06;;;;;;;8.27;2.53;;;;;;;11.63;100.00;101439.50;4999939;28;20030;-80
2021/12/31 07:35:32;;;;;;;9.93;2.88;;;;;;;11.56;100.00;101435.47;5000690;28;20045;-80
2021/12/31 07:37:59;;;;;;;7.20;2.15;;;;;;;11.54;100.00;101438.31;5003047;28;20046;-78
2021/12/31 07:40:33;;;;;;;7.30;1.98;;;;;;;11.51;100.00;101457.72;5003387;28;20069;-79
2021/12/31 07:42:58;;;;;;;15.05;2.45;;;;;;;11.48;100.00;101457.94;5002600;28;20026;-79
2021/12/31 07:45:24;;;;;;;11.85;3.13;;;;;;;11.55;100.00;101458.38;5001993;28;20025;-80
2021/12/31 07:47:49;;;;;;;10.30;2.40;;;;;;;11.56;100.00;101457.41;5001286;28;20038;-79
2021/12/31 07:50:15;;;;;;;5.57;2.25;;;;;;;11.39;100.00;101434.81;5019276;28;20366;-80
2021/12/31 07:52:40;;;;;;;5.63;2.67;;;;;;;11.52;100.00;101455.84;5014531;28;20084;-79
2021/12/31 07:55:06;;;;;;;8.00;2.75;;;;;;;11.51;100.00;101456.84;4993463;28;20031;-79
2021/12/31 07:57:34;;;;;;;10.57;3.55;;;;;;;11.47;100.00;101460.81;5000331;28;20461;-79
2021/12/31 08:00:00;;;;;;;8.82;3.00;;;;;;;11.45;100.00;101471.88;5018436;28;20040;-79
2021/12/31 08:02:26;;;;;;;9.75;2.63;;;;;;;11.46;100.00;101473.66;5007160;28;20031;-79
2021/12/31 08:04:51;;;;;;;10.95;2.83;;;;;;;11.48;100.00;101474.41;5007683;28;20038;-80
2021/12/31 08:07:16;;;;;;;7.35;2.70;;;;;;;11.49;100.00;101488.97;5016060;28;20054;-80
2021/12/31 08:09:42;;;;;;;5.28;2.90;;;;;;;11.43;100.00;101489.41;5018386;28;20049;-79
2021/12/31 08:12:08;;;;;;;5.97;2.60;;;;;;;11.41;100.00;101495.03;5016065;28;20049;-80
2021/12/31 08:14:33;;;;;;;6.22;2.88;;;;;;;11.38;100.00;101498.88;5003326;28;20096;-79
2021/12/31 08:16:59;;;;;;;3.90;2.65;;;;;;;11.42;100.00;101493.19;5007716;28;20030;-80
2021/12/31 08:19:24;;;;;;;8.60;3.35;;;;;;;11.35;100.00;101503.72;5012041;28;20034;-80
2021/12/31 08:21:49;;;;;;;14.07;3.10;;;;;;;11.57;100.00;101505.75;4998876;28;20456;-78
2021/12/31 08:24:15;;;;;;;7.55;2.80;;;;;;;11.42;100.00;101502.28;4998842;28;20049;-78
2021/12/31 08:26:41;;;;;;;6.80;2.60;;;;;;;11.37;100.00;101513.56;4998577;28;20097;-78
2021/12/31 08:29:08;;;;;;;8.32;3.00;;;;;;;11.42;100.00;101513.25;4997986;28;20054;-78
2021/12/31 08:31:34;;;;;;;9.40;3.08;;;;;;;11.38;100.00;101511.72;5016971;28;20038;-78
2021/12/31 08:34:00;;;;;;;8.40;3.35;;;;;;;11.37;100.00;101515.44;5018776;28;20065;-78
2021/12/31 08:36:25;;;;;;;9.55;3.17;;;;;;;11.40;100.00;101501.50;5017508;28;20489;-78
2021/12/31 08:38:50;;;;;;;8.35;3.13;;;;;;;11.43;100.00;101514.09;5007918;28;20053;-78
2021/12/31 08:41:17;;;;;;;10.52;3.47;;;;;;;11.39;100.00;101508.84;4989732;28;20030;-79
2021/12/31 08:43:42;;;;;;;10.02;2.88;;;;;;;11.44;100.00;101493.94;4999063;28;20420;-79
2021/12/31 08:46:08;;;;;;;12.68;3.10;;;;;;;11.47;100.00;101497.31;5008336;28;20046;-79
2021/12/31 08:48:33;;;;;;;9.13;3.00;;;;;;;11.43;100.00;101490.31;4997120;28;20569;-79
2021/12/31 08:50:59;;;;;;;10.23;3.10;;;;;;;11.49;100.00;101492.59;4998510;28;20042;-79
2021/12/31 08:53:24;;;;;;;7.32;2.47;;;;;;;11.53;100.00;101493.28;4992379;28;20029;-79
2021/12/31 08:55:50;;;;;;;8.40;2.90;;;;;;;11.53;100.00;101488.66;5015746;28;20437;-78
2021/12/31 08:58:15;;;;;;;7.90;2.72;;;;;;;11.53;100.00;101485.91;5008870;28;20034;-79
2021/12/31 09:00:40;;;;;;;11.93;2.85;;;;;;;11.52;100.00;101473.19;5004615;28;20033;-78
2021/12/31 09:03:06;;;;;;;6.97;2.10;;;;;;;11.54;100.00;101487.69;5016593;28;20122;-79
2021/12/31 09:05:33;;;;;;;8.65;2.40;;;;;;;11.56;100.00;101484.81;5002506;28;20092;-79
2021/12/31 09:07:58;;;;;;;7.65;2.92;;;;;;;11.53;100.00;101483.16;5007244;28;20544;-79
2021/12/31 09:10:24;;;;;;;8.77;2.88;;;;;;;11.62;100.00;101478.00;5009875;28;20034;-81
2021/12/31 09:12:50;;;;;;;9.40;2.60;;;;;;;11.63;100.00;101480.63;5004371;28;20402;-79
2021/12/31 09:15:16;;;;;;;7.57;2.72;;;;;;;11.67;100.00;101476.66;5012245;28;20124;-80
2021/12/31 09:17:42;;;;;;;5.78;2.47;;;;;;;11.65;100.00;101484.13;5009266;28;20053;-79
2021/12/31 09:20:08;;;;;;;9.75;2.53;;;;;;;11.65;100.00;101473.16;4999922;28;20034;-79
2021/12/31 09:22:33;;;;;;;4.90;2.35;;;;;;;11.65;100.00;101480.53;4983512;28;20038;-79
2021/12/31 09:24:59;;;;;;;4.63;2.20;;;;;;;11.62;100.00;101467.03;4999342;28;20458;-79
2021/12/31 09:27:26;;;;;;;8.32;2.72;;;;;;;11.65;100.00;101480.53;5011807;28;20080;-79
2021/12/31 09:29:51;;;;;;;7.40;2.63;;;;;;;11.72;100.00;101469.00;5003557;28;20038;-79
2021/12/31 09:32:17;;;;;;;8.32;2.28;;;;;;;11.78;100.00;101478.63;5000495;28;20601;-79
2021/12/31 09:34:44;;;;;;;7.40;2.30;;;;;;;11.78;100.00;101470.38;4999018;28;20038;-79
2021/12/31 09:37:12;;;;;;;7.40;2.15;;;;;;;11.83;100.00;101464.56;5012410;28;20026;-79
2021/12/31 09:39:38;;;;;;;5.63;2.47;;;;;;;11.84;100.00;101475.44;5017682;28;20056;-79
2021/12/31 09:42:08;;;;;;;8.32;2.45;;;;;;;11.87;100.00;101480.69;5018249;28;20040;-79
2021/12/31 09:44:35;;;;;;;5.47;2.40;;;;;;;11.89;100.00;101473.22;5000892;28;20037;-79
2021/12/31 09:47:07;;;;;;;3.75;1.80;;;;;;;11.95;100.00;101474.63;5017876;28;20041;-79
2021/12/31 09:49:34;;;;;;;9.25;2.13;;;;;;;11.94;100.00;101483.88;4999730;28;20030;-78
2021/12/31 09:52:02;;;;;;;3.80;2.58;;;;;;;11.95;100.00;101496.59;4999911;28;20050;-79
2021/12/31 09:54:27;;;;;;;8.10;2.30;;;;;;;11.92;100.00;101502.31;5018565;28;20034;-79
2021/12/31 09:56:52;;;;;;;2.83;2.00;;;;;;;11.91;100.00;101495.94;5013482;28;20037;-79
2021/12/31 09:59:18;;;;;;;9.80;2.58;;;;;;;11.89;100.00;101497.91;4982308;28;20042;-79
2021/12/31 10:01:48;;;;;;;7.32;2.25;;;;;;;11.95;100.00;101502.97;5003619;28;20040;-79
2021/12/31 10:04:14;;;;;;;5.50;2.28;;;;;;;11.90;100.00;101510.66;4999454;28;20026;-79
2021/12/31 10:07:09;;;;;;;4.82;1.80;;;;;;;11.89;100.00;101505.28;5017108;28;20040;-79
2021/12/31 10:09:37;;;;;;;6.72;2.15;;;;;;;11.94;100.00;101517.69;4981021;28;20042;-79
2021/12/31 10:12:03;;;;;;;3.33;2.20;;;;;;;12.00;100.00;101519.06;5014360;28;20108;-79
2021/12/31 10:14:36;;;;;;;10.70;3.05;;;;;;;12.00;100.00;101502.59;5000365;28;20481;-79
2021/12/31 10:17:02;;;;;;;3.85;1.88;;;;;;;11.98;100.00;101500.97;5015899;28;20091;-79
2021/12/31 10:19:27;;;;;;;5.57;2.50;;;;;;;11.91;100.00;101486.81;4999039;28;20482;-79
2021/12/31 10:21:56;;;;;;;5.47;2.63;;;;;;;11.95;100.00;101496.59;5006905;28;20065;-78
2021/12/31 10:24:38;;;;;;;8.73;2.50;;;;;;;11.92;100.00;101484.00;5002832;28;20049;-79
2021/12/31 10:27:10;;;;;;;8.70;2.70;;;;;;;11.95;100.00;101482.88;5002262;28;20033;-79
2021/12/31 10:29:56;;;;;;;3.85;2.15;;;;;;;11.88;100.00;101482.41;5002181;28;20087;-79
2021/12/31 10:32:25;;;;;;;5.25;2.25;;;;;;;11.94;100.00;101479.25;5003370;28;20038;-79
2021/12/31 10:34:51;;;;;;;6.35;2.03;;;;;;;11.94;100.00;101482.00;5005440;28;20500;-80
2021/12/31 10:37:23;;;;;;;9.88;2.65;;;;;;;12.00;100.00;101466.06;5024182;28;20033;-79
2021/12/31 10:39:57;;;;;;;6.28;1.95;;;;;;;12.01;100.00;101467.81;5012831;28;20057;-80
2021/12/31 10:42:29;;;;;;;4.72;1.55;;;;;;;12.02;100.00;101437.53;5007417;28;20091;-79
2021/12/31 10:44:54;;;;;;;4.72;1.98;;;;;;;11.94;100.00;101429.84;5023431;28;20516;-79
2021/12/31 10:47:37;;;;;;;5.88;2.13;;;;;;;12.08;100.00;101442.50;5005489;28;20042;-79
2021/12/31 10:50:02;;;;;;;6.43;2.30;;;;;;;12.08;100.00;101460.88;5018482;28;20060;-79
2021/12/31 10:52:36;;;;;;;8.55;2.10;;;;;;;12.06;100.00;101463.72;5016200;28;20029;-78
2021/12/31 10:58:03;;;;;;;7.45;2.58;;;;;;;12.18;100.00;101486.63;5001893;28;19985;-78
2021/12/31 11:00:41;;;;;;;8.27;2.55;;;;;;;12.30;100.00;101493.94;4997030;28;20042;-78
2021/12/31 11:03:08;;;;;;;5.60;1.90;;;;;;;12.32;100.00;101483.69;5006263;28;20030;-77
2021/12/31 11:05:35;;;;;;;10.27;2.33;;;;;;;12.52;100.00;101481.28;4969163;28;20504;-77
2021/12/31 11:08:03;;;;;;;9.95;2.22;;;;;;;12.65;100.00;101470.22;5001641;28;20113;-77
2021/12/31 11:10:33;;;;;;;5.47;2.53;;;;;;;12.78;100.00;101478.41;5000435;28;20033;-79
2021/12/31 11:13:02;;;;;;;7.55;2.58;;;;;;;12.70;100.00;101476.25;5009709;28;20179;-79
2021/12/31 11:15:28;;;;;;;9.68;5.28;;;;;;;12.81;100.00;101478.16;5012306;28;20045;-78
2021/12/31 11:17:54;;;;;;;4.82;1.92;;;;;;;12.73;100.00;101478.75;5018378;28;20039;-79
2021/12/31 11:20:24;;;;;;;7.28;2.22;;;;;;;12.82;100.00;101464.31;4996607;28;20038;-80
2021/12/31 11:22:51;;;;;;;6.25;2.15;;;;;;;12.77;100.00;101460.16;5014331;28;20046;-79